Calling Lake, Canada
Current Conditions -  °F | °C
As of 7:27 PM on Friday 21 Nov 2014 (Local Time) from CYZH Reporting Station
Haze Haze  
Wind Chill: 17°   Ceiling: 700
Heat Index: 28°   Visibility: 3mi
Dew Point: 28°   Wind: 15mph
Humidity: 100%   Direction: 100°E
Pressure: 29.44"   Gusts: 21mph
Location:  55.25°N, 113.2°W
Report Text: CYZH 220227Z AUTO 10013G18KT 3SM BR OVC007 M02/M02 A2944 RMK ICG SLP994
Loading
Personal Weather Stations






























Interactive Weather Map New forecast layout! Learn more

10-Day Weather Forecast

Advertisements
Track Severe Weather on mobile